Time;durP1;ratioP1;P1;durP2;ratioP2;P2;SDS_P1;SDS_P2;PMS_P1;PMS_P2;Temp;Humidity;BMP_temperature;BMP_pressure;BME280_temperature;BME280_humidity;BME280_pressure;Samples;Min_cycle;Max_cycle;Signal;HPM_P1;HPM_P2
2020/12/09 00:01:35;;;;;;;22.33;12.30;;;;;;;0.95;65.47;100212.96;124733;1095;104907;-77
2020/12/09 00:04:03;;;;;;;19.63;10.43;;;;;;;0.98;64.94;100210.13;124777;1095;104619;-74
2020/12/09 00:06:38;;;;;;;22.23;11.93;;;;;;;0.93;64.81;100212.21;124608;1095;104490;-78
2020/12/09 00:09:08;;;;;;;20.97;11.17;;;;;;;0.92;65.22;100207.88;124667;1095;104574;-75
2020/12/09 00:11:36;;;;;;;21.17;11.03;;;;;;;0.90;65.38;100209.76;124692;1095;104625;-79
2020/12/09 00:14:05;;;;;;;18.70;10.90;;;;;;;0.91;65.51;100200.95;124640;1095;104542;-77
2020/12/09 00:16:34;;;;;;;20.80;10.57;;;;;;;0.90;65.10;100199.25;124637;1095;104494;-77
2020/12/09 00:19:03;;;;;;;23.15;12.35;;;;;;;0.87;64.48;100218.68;124772;1095;104545;-74
2020/12/09 00:21:33;;;;;;;18.37;10.40;;;;;;;0.83;64.95;100204.05;124728;1095;104609;-74
2020/12/09 00:24:03;;;;;;;20.30;11.30;;;;;;;0.89;64.78;100208.08;124648;1095;104714;-76
2020/12/09 00:26:32;;;;;;;20.13;10.93;;;;;;;0.89;65.28;100213.34;124635;1095;104500;-76
2020/12/09 00:29:01;;;;;;;20.45;11.35;;;;;;;0.88;64.45;100206.38;124707;1095;104506;-76
2020/12/09 00:31:32;;;;;;;20.80;11.63;;;;;;;0.86;64.92;100213.52;124659;1095;104618;-79
2020/12/09 00:34:01;;;;;;;22.77;11.90;;;;;;;0.83;64.56;100213.68;124654;1095;104625;-76
2020/12/09 00:36:30;;;;;;;23.77;12.67;;;;;;;0.77;65.32;100210.51;124629;1095;104519;-77
2020/12/09 00:38:59;;;;;;;19.37;10.23;;;;;;;0.76;64.66;100224.56;124653;1095;104516;-75
2020/12/09 00:41:28;;;;;;;26.15;11.85;;;;;;;0.78;64.60;100212.18;124689;1095;104603;-73
2020/12/09 00:43:58;;;;;;;22.23;11.00;;;;;;;0.76;64.90;100216.68;124683;1096;104564;-77
2020/12/09 00:46:29;;;;;;;22.17;11.87;;;;;;;0.78;64.66;100220.06;124648;1095;104525;-75
2020/12/09 00:49:00;;;;;;;22.00;12.27;;;;;;;0.78;64.81;100222.69;124726;1095;104635;-75
2020/12/09 00:51:30;;;;;;;24.90;13.33;;;;;;;0.79;65.11;100213.05;124708;1095;104666;-76
2020/12/09 00:53:59;;;;;;;20.97;13.07;;;;;;;0.78;64.99;100216.59;124675;1096;104513;-74
2020/12/09 00:56:29;;;;;;;;;;;;;;;0.77;65.06;100213.13;124731;1095;104951;-75
2020/12/09 00:59:03;;;;;;;20.45;11.20;;;;;;;0.74;64.97;100204.59;124657;1095;104512;-73
2020/12/09 01:01:32;;;;;;;24.43;12.27;;;;;;;0.71;65.11;100199.50;124819;1095;104657;-73
2020/12/09 01:04:03;;;;;;;22.93;12.33;;;;;;;0.71;64.91;100200.38;124689;1095;104532;-74
2020/12/09 01:06:34;;;;;;;25.90;12.77;;;;;;;0.71;64.83;100210.88;124681;1096;104595;-75
2020/12/09 01:09:06;;;;;;;22.60;12.50;;;;;;;0.72;64.81;100204.67;124757;1095;104586;-73
2020/12/09 01:11:34;;;;;;;22.13;12.27;;;;;;;0.74;65.34;100210.67;124714;1095;104510;-76
2020/12/09 01:14:03;;;;;;;22.83;12.23;;;;;;;0.70;64.71;100214.42;124747;1095;104511;-74
2020/12/09 01:16:31;;;;;;;23.15;12.30;;;;;;;0.68;65.09;100218.09;124707;1095;104523;-73
2020/12/09 01:18:59;;;;;;;24.67;13.07;;;;;;;0.64;64.68;100199.04;124728;1095;104506;-73
2020/12/09 01:21:31;;;;;;;21.35;12.10;;;;;;;0.62;65.52;100206.16;124755;1095;104586;-74
2020/12/09 01:23:59;;;;;;;25.67;13.80;;;;;;;0.58;65.19;100196.78;124727;1095;104574;-73
2020/12/09 01:26:28;;;;;;;22.00;11.73;;;;;;;0.58;65.11;100202.87;124669;1095;104605;-72
2020/12/09 01:28:56;;;;;;;21.50;11.77;;;;;;;0.61;64.99;100198.38;124675;1096;104512;-72
2020/12/09 01:31:25;;;;;;;23.10;12.83;;;;;;;0.58;64.95;100197.63;124755;1095;104676;-73
2020/12/09 01:33:53;;;;;;;23.43;11.93;;;;;;;0.57;64.93;100203.79;124603;1095;104600;-76
2020/12/09 01:36:22;;;;;;;23.53;12.57;;;;;;;0.59;65.05;100207.17;124633;1095;104518;-75
2020/12/09 01:38:52;;;;;;;21.25;10.85;;;;;;;0.59;64.64;100208.95;124704;1095;105019;-75
2020/12/09 01:41:22;;;;;;;22.37;11.50;;;;;;;0.59;65.12;100212.42;124607;1095;104577;-77
2020/12/09 01:43:52;;;;;;;24.87;13.70;;;;;;;0.61;65.15;100222.84;124763;1095;104612;-75
2020/12/09 01:46:27;;;;;;;24.85;13.25;;;;;;;0.62;64.96;100214.05;124660;1095;104487;-76
2020/12/09 01:48:56;;;;;;;21.27;11.80;;;;;;;0.60;65.21;100215.92;124705;1095;104516;-75
2020/12/09 01:51:26;;;;;;;23.80;12.05;;;;;;;0.62;64.76;100208.79;124760;1095;104590;-77
2020/12/09 01:53:56;;;;;;;21.50;12.63;;;;;;;0.60;64.87;100226.42;124673;1095;104531;-72
2020/12/09 01:56:25;;;;;;;25.80;13.33;;;;;;;0.54;65.41;100213.63;124655;1095;104487;-75
2020/12/09 01:58:54;;;;;;;24.70;13.30;;;;;;;0.54;64.91;100216.25;124662;1095;104513;-75
2020/12/09 02:01:23;;;;;;;25.50;12.73;;;;;;;0.51;64.99;100232.20;124700;1095;104621;-77
2020/12/09 02:03:52;;;;;;;25.47;14.13;;;;;;;0.50;64.70;100219.99;124752;1095;104602;-76
2020/12/09 02:06:21;;;;;;;23.43;13.23;;;;;;;0.45;64.95;100220.27;124653;1095;104615;-74
2020/12/09 02:08:49;;;;;;;23.50;12.80;;;;;;;0.46;64.89;100223.73;124635;1095;104647;-75
2020/12/09 02:11:17;;;;;;;21.80;11.10;;;;;;;0.47;64.55;100218.41;124714;1095;104937;-74
2020/12/09 02:13:47;;;;;;;20.50;10.10;;;;;;;0.44;64.77;100215.95;124701;1096;104619;-75
2020/12/09 02:16:18;;;;;;;22.37;11.53;;;;;;;0.43;65.30;100226.56;124724;1095;104487;-75
2020/12/09 02:18:46;;;;;;;24.60;12.68;;;;;;;0.41;64.99;100226.64;124681;1095;104603;-76
2020/12/09 02:21:14;;;;;;;23.23;13.03;;;;;;;0.44;65.03;100233.48;124750;1095;104647;-79
2020/12/09 02:23:43;;;;;;;20.87;11.43;;;;;;;0.43;64.81;100237.06;124629;1095;104657;-78
2020/12/09 02:26:11;;;;;;;24.10;12.37;;;;;;;0.39;64.81;100221.48;124622;1095;104602;-74
2020/12/09 02:28:39;;;;;;;20.57;11.90;;;;;;;0.36;64.81;100221.64;124715;1096;104596;-76
2020/12/09 02:31:07;;;;;;;19.10;11.13;;;;;;;0.36;64.99;100219.02;124755;1096;104574;-77
2020/12/09 02:33:36;;;;;;;19.50;10.23;;;;;;;0.38;64.87;100225.02;124715;1095;104634;-74
2020/12/09 02:36:04;;;;;;;20.80;10.40;;;;;;;0.36;64.65;100220.80;124627;1095;104481;-75
2020/12/09 02:38:33;;;;;;;21.60;12.20;;;;;;;0.33;64.58;100223.63;124688;1095;104561;-74
2020/12/09 02:41:01;;;;;;;22.70;12.37;;;;;;;0.25;64.77;100224.06;124835;1095;104656;-74
2020/12/09 02:43:31;;;;;;;25.57;14.37;;;;;;;0.22;64.60;100224.23;124689;1095;104609;-74
2020/12/09 02:45:59;;;;;;;24.90;12.67;;;;;;;0.19;65.01;100224.39;124745;1096;104564;-74
2020/12/09 02:48:27;;;;;;;22.97;11.23;;;;;;;0.15;64.96;100228.13;124623;1095;104510;-74
2020/12/09 02:50:57;;;;;;;24.97;13.30;;;;;;;0.12;64.74;100230.94;124686;1095;104599;-74
2020/12/09 02:53:25;;;;;;;25.63;12.63;;;;;;;0.08;64.93;100237.27;124685;1095;104713;-76
2020/12/09 02:55:54;;;;;;;23.83;12.50;;;;;;;-0.02;65.04;100236.94;124646;1096;104599;-74
2020/12/09 02:58:22;;;;;;;22.67;12.07;;;;;;;-0.11;64.54;100222.58;124679;1095;104574;-75
2020/12/09 03:00:50;;;;;;;21.60;11.63;;;;;;;-0.20;64.86;100229.17;124738;1095;104567;-77
2020/12/09 03:03:18;;;;;;;21.80;11.90;;;;;;;-0.25;65.17;100228.60;124708;1095;104647;-76
2020/12/09 03:05:47;;;;;;;23.33;11.70;;;;;;;-0.30;65.12;100235.03;124658;1095;104865;-75
2020/12/09 03:08:15;;;;;;;21.47;11.93;;;;;;;-0.35;64.59;100230.02;124912;1096;104603;-75
2020/12/09 03:10:43;;;;;;;24.87;12.97;;;;;;;-0.43;65.14;100233.05;124744;1095;104666;-76
2020/12/09 03:13:12;;;;;;;24.17;13.23;;;;;;;-0.51;64.91;100243.12;125269;1095;104723;-76
2020/12/09 03:15:40;;;;;;;27.83;14.30;;;;;;;-0.55;65.04;100235.52;125903;1095;104775;-76
2020/12/09 03:18:08;;;;;;;25.20;13.90;;;;;;;-0.61;65.43;100250.63;124794;1095;104513;-75
2020/12/09 03:20:37;;;;;;;25.17;14.13;;;;;;;-0.66;64.98;100236.91;124744;1095;104597;-75
2020/12/09 03:23:05;;;;;;;28.13;15.17;;;;;;;-0.70;65.22;100237.17;124690;1095;104705;-76
2020/12/09 03:25:33;;;;;;;28.50;14.97;;;;;;;-0.72;65.99;100231.17;124698;1095;104539;-73
2020/12/09 03:28:01;;;;;;;29.87;14.77;;;;;;;-0.76;65.80;100237.50;124765;1095;104871;-75
2020/12/09 03:30:30;;;;;;;29.35;15.60;;;;;;;-0.83;66.08;100235.22;124714;1095;104652;-77
2020/12/09 03:32:58;;;;;;;29.03;15.07;;;;;;;-0.88;65.64;100233.77;124738;1095;104768;-75
2020/12/09 03:35:26;;;;;;;33.23;17.33;;;;;;;-0.90;66.07;100225.14;124679;1095;104496;-74
2020/12/09 03:37:54;;;;;;;29.77;15.47;;;;;;;-0.91;65.32;100232.13;124800;1095;104570;-74
2020/12/09 03:40:23;;;;;;;28.33;14.40;;;;;;;-0.94;65.63;100231.44;124714;1095;104628;-78
2020/12/09 03:42:51;;;;;;;30.10;15.63;;;;;;;-0.93;65.09;100223.51;124662;1095;104555;-75
2020/12/09 03:45:22;;;;;;;34.00;16.65;;;;;;;-0.96;65.94;100223.69;124682;1095;104999;-76
2020/12/09 03:47:50;;;;;;;31.40;17.10;;;;;;;-1.01;66.04;100229.15;124662;1095;104512;-76
2020/12/09 03:50:19;;;;;;;29.15;14.70;;;;;;;-1.05;65.41;100225.00;124707;1095;104803;-76
2020/12/09 03:52:47;;;;;;;32.60;16.60;;;;;;;-1.08;65.90;100222.56;124753;1095;104691;-73
2020/12/09 03:55:15;;;;;;;28.93;16.07;;;;;;;-1.11;65.38;100229.73;124715;1095;104605;-73
2020/12/09 03:57:43;;;;;;;31.40;16.90;;;;;;;-1.12;65.40;100230.64;124626;1095;104493;-74
2020/12/09 04:00:12;;;;;;;30.83;15.40;;;;;;;-1.11;66.41;100227.94;124787;1096;104526;-74
2020/12/09 04:02:40;;;;;;;30.53;16.77;;;;;;;-1.10;66.01;100228.78;124689;1095;104536;-72
2020/12/09 04:05:09;;;;;;;32.33;16.17;;;;;;;-1.13;66.53;100232.41;124688;1095;104609;-77
2020/12/09 04:07:37;;;;;;;32.30;16.43;;;;;;;-1.12;65.96;100228.02;124689;1095;104552;-74
2020/12/09 04:10:07;;;;;;;33.80;17.45;;;;;;;-1.17;65.48;100228.27;124745;1095;104628;-74
2020/12/09 04:12:35;;;;;;;37.97;18.67;;;;;;;-1.23;66.40;100232.05;124698;1095;104593;-75
2020/12/09 04:15:04;;;;;;;33.83;17.77;;;;;;;-1.26;65.86;100220.88;124710;1095;104487;-82
2020/12/09 04:17:33;;;;;;;34.40;18.17;;;;;;;-1.28;66.53;100228.80;124673;1095;104484;-74
2020/12/09 04:20:01;;;;;;;31.67;16.33;;;;;;;-1.29;65.27;100229.75;125166;1094;104651;-73
2020/12/09 04:22:29;;;;;;;37.63;20.60;;;;;;;-1.25;65.97;100227.79;124727;1096;104543;-75
2020/12/09 04:24:58;;;;;;;30.73;16.27;;;;;;;-1.25;66.60;100227.79;124611;1095;104599;-76
2020/12/09 04:27:26;;;;;;;30.05;14.45;;;;;;;-1.25;66.30;100233.89;124677;1095;104520;-74
2020/12/09 04:29:54;;;;;;;34.35;16.15;;;;;;;-1.32;65.64;100232.51;124723;1095;104695;-75
2020/12/09 04:32:23;;;;;;;35.30;18.50;;;;;;;-1.35;65.69;100230.03;124635;1095;104626;-74
2020/12/09 04:34:55;;;;;;;43.00;21.80;;;;;;;-1.34;66.62;100228.28;124631;1095;104712;-73
2020/12/09 04:37:25;;;;;;;44.03;21.03;;;;;;;-1.35;66.58;100230.03;124657;1095;104609;-73
2020/12/09 04:39:54;;;;;;;39.60;17.77;;;;;;;-1.37;66.66;100224.03;124735;1096;104644;-73
2020/12/09 04:42:24;;;;;;;38.03;18.73;;;;;;;-1.41;65.99;100232.97;124677;1095;104638;-74
2020/12/09 04:44:53;;;;;;;50.83;21.83;;;;;;;-1.42;66.60;100226.89;124682;1096;104577;-75
2020/12/09 04:47:26;;;;;;;41.10;18.33;;;;;;;-1.41;66.62;100238.20;124717;1095;104593;-73
2020/12/09 04:50:08;;;;;;;38.73;19.40;;;;;;;-1.43;66.09;100237.44;124722;1095;104602;-74
2020/12/09 04:52:44;;;;;;;36.63;18.17;;;;;;;-1.41;66.75;100231.19;124652;1095;104922;-75
2020/12/09 04:55:14;;;;;;;36.77;17.97;;;;;;;-1.39;65.48;100233.73;124688;1095;104596;-73
2020/12/09 04:57:54;;;;;;;42.03;19.57;;;;;;;-1.40;66.06;100235.52;124617;1095;104523;-73
2020/12/09 05:00:29;;;;;;;41.87;18.57;;;;;;;-1.41;66.26;100232.97;124758;1090;104570;-79
2020/12/09 05:03:13;;;;;;;39.53;19.10;;;;;;;-1.40;66.21;100237.30;124668;1095;104731;-73
2020/12/09 05:05:42;;;;;;;37.73;19.23;;;;;;;-1.40;66.29;100242.52;124684;1096;104944;-74
2020/12/09 05:08:22;;;;;;;57.60;22.73;;;;;;;-1.43;65.59;100240.05;124636;1095;104593;-75
2020/12/09 05:10:51;;;;;;;56.17;22.60;;;;;;;-1.43;66.72;100247.90;124739;1095;104653;-74
2020/12/09 05:13:27;;;;;;;43.40;19.80;;;;;;;-1.42;66.41;100241.76;124652;1095;104584;-75
2020/12/09 05:15:58;;;;;;;42.30;19.73;;;;;;;-1.44;66.87;100249.68;124670;1095;104523;-75
2020/12/09 05:18:36;;;;;;;41.87;18.70;;;;;;;-1.44;66.34;100248.84;124664;1095;104603;-74
2020/12/09 05:21:17;;;;;;;38.93;19.00;;;;;;;-1.44;66.77;100243.61;124710;1095;104638;-74
2020/12/09 05:23:48;;;;;;;38.80;17.40;;;;;;;-1.48;66.95;100242.04;124741;1095;104564;-76
2020/12/09 05:26:27;;;;;;;38.57;19.10;;;;;;;-1.52;65.66;100245.73;124707;1095;104565;-75
2020/12/09 05:29:09;;;;;;;38.43;18.67;;;;;;;-1.54;65.86;100252.81;124662;1095;104603;-74
2020/12/09 05:31:39;;;;;;;37.83;18.67;;;;;;;-1.56;66.59;100246.81;124737;1095;104727;-74
2020/12/09 05:34:25;;;;;;;44.70;23.90;;;;;;;-1.52;66.11;100250.97;124801;1095;104640;-74
2020/12/09 05:36:54;;;;;;;47.00;23.43;;;;;;;-1.50;66.78;100257.84;124683;1096;104493;-74
2020/12/09 05:39:23;;;;;;;68.63;44.50;;;;;;;-1.52;66.19;100257.08;124651;1095;104711;-74
2020/12/09 05:41:52;;;;;;;125.95;77.45;;;;;;;-1.51;65.97;100255.30;124687;1095;104485;-74
2020/12/09 05:44:22;;;;;;;91.53;50.43;;;;;;;-1.49;66.22;100253.45;124622;1095;104632;-74
2020/12/09 05:47:02;;;;;;;74.03;39.50;;;;;;;-1.51;66.55;100257.91;124655;1095;104602;-74
2020/12/09 05:49:32;;;;;;;60.93;29.97;;;;;;;-1.51;65.54;100255.30;124611;1095;104618;-73
2020/12/09 05:52:12;;;;;;;58.77;28.30;;;;;;;-1.50;66.73;100256.97;124685;1096;104638;-76
2020/12/09 05:54:43;;;;;;;67.60;29.75;;;;;;;-1.49;65.82;100266.53;124634;1096;104545;-74
2020/12/09 05:57:13;;;;;;;59.90;27.73;;;;;;;-1.44;66.37;100272.39;124665;1095;104509;-74
2020/12/09 05:59:43;;;;;;;55.25;25.65;;;;;;;-1.41;66.16;100264.37;124715;1095;104611;-73
2020/12/09 06:02:14;;;;;;;61.30;25.87;;;;;;;-1.39;66.22;100260.78;124756;1095;104548;-75
2020/12/09 06:04:54;;;;;;;61.37;26.25;;;;;;;-1.34;66.64;100265.77;124728;1095;104561;-74
2020/12/09 06:07:24;;;;;;;66.20;26.63;;;;;;;-1.34;65.89;100260.53;124630;1095;104487;-74
2020/12/09 06:10:11;;;;;;;64.83;25.40;;;;;;;-1.33;65.60;100256.14;124663;1095;104523;-75
2020/12/09 06:12:56;;;;;;;53.70;23.07;;;;;;;-1.30;66.78;100256.00;124724;1095;104663;-75
2020/12/09 06:15:29;;;;;;;114.63;42.20;;;;;;;-1.33;66.82;100264.83;124675;1094;105096;-74
2020/12/09 06:18:11;;;;;;;62.53;25.17;;;;;;;-1.34;65.91;100273.63;124718;1095;104638;-74
2020/12/09 06:20:41;;;;;;;92.03;31.23;;;;;;;-1.34;66.69;100271.00;124750;1095;104609;-74
2020/12/09 06:23:13;;;;;;;91.40;30.30;;;;;;;-1.32;66.30;100263.08;124687;1095;104621;-73
2020/12/09 06:25:42;;;;;;;79.63;28.27;;;;;;;-1.30;66.33;100266.47;124670;1095;104532;-72
2020/12/09 06:28:12;;;;;;;66.90;26.67;;;;;;;-1.27;65.75;100261.05;124733;1095;104641;-75
2020/12/09 06:30:41;;;;;;;64.63;24.40;;;;;;;-1.27;65.99;100264.55;124662;1095;104625;-74
2020/12/09 06:33:10;;;;;;;111.60;38.57;;;;;;;-1.25;65.50;100256.59;124705;1095;104596;-74
2020/12/09 06:35:39;;;;;;;74.50;27.37;;;;;;;-1.26;66.32;100257.53;124677;1095;104973;-73
2020/12/09 06:38:17;;;;;;;66.40;27.50;;;;;;;-1.29;66.87;100263.77;124643;1095;104603;-74
2020/12/09 06:41:11;;;;;;;57.17;26.07;;;;;;;-1.30;65.97;100271.70;124539;1096;104516;-81
2020/12/09 06:44:00;;;;;;;58.10;25.87;;;;;;;-1.27;65.68;100275.02;124706;1096;104567;-72
2020/12/09 06:46:40;;;;;;;61.40;26.60;;;;;;;-1.24;66.77;100272.22;124764;1095;104523;-75
2020/12/09 06:49:38;;;;;;;61.73;25.67;;;;;;;-1.25;66.93;100269.67;124670;1095;104618;-75
2020/12/09 06:52:33;;;;;;;58.77;26.40;;;;;;;-1.26;66.73;100268.84;124608;1095;104519;-73
2020/12/09 06:55:03;;;;;;;58.63;26.10;;;;;;;-1.21;66.10;100258.98;124691;1095;104670;-74
2020/12/09 06:57:35;;;;;;;59.43;28.37;;;;;;;-1.16;66.03;100274.45;124674;1095;104596;-73
2020/12/09 07:00:24;;;;;;;51.45;24.50;;;;;;;-1.14;66.78;100277.84;124658;1095;104567;-73
2020/12/09 07:02:55;;;;;;;48.37;22.90;;;;;;;-1.12;66.06;100275.15;124659;1095;104609;-74
2020/12/09 07:05:29;;;;;;;;;;;;;;;-1.13;66.35;100278.70;124656;1095;104522;-73
2020/12/09 07:08:05;;;;;;;42.40;20.33;;;;;;;-1.10;65.95;100273.30;124678;1095;104541;-74
2020/12/09 07:10:35;;;;;;;47.87;23.77;;;;;;;-1.07;65.94;100265.30;124599;1095;104586;-73
2020/12/09 07:13:12;;;;;;;51.27;23.67;;;;;;;-1.02;66.69;100271.13;124612;1096;104510;-73
2020/12/09 07:15:43;;;;;;;43.40;23.23;;;;;;;-0.97;66.61;100270.91;124609;1095;104615;-73
2020/12/09 07:18:12;;;;;;;45.60;22.87;;;;;;;-0.93;66.16;100264.58;124595;1095;104599;-73
2020/12/09 07:20:41;;;;;;;45.87;22.10;;;;;;;-0.93;66.00;100262.80;124574;1095;105016;-74
2020/12/09 07:23:09;;;;;;;40.70;21.53;;;;;;;-0.91;66.02;100252.25;124633;1095;104596;-73
2020/12/09 07:25:38;;;;;;;47.00;22.03;;;;;;;-0.91;66.62;100265.34;124628;1095;104590;-75
2020/12/09 07:28:06;;;;;;;46.47;24.03;;;;;;;-0.93;66.45;100270.66;124591;1096;104990;-75
2020/12/09 07:30:35;;;;;;;46.15;22.20;;;;;;;-0.95;66.26;100272.51;124595;1095;104500;-74
2020/12/09 07:33:03;;;;;;;44.43;22.10;;;;;;;-0.96;66.70;100264.72;124592;1095;104512;-73
2020/12/09 07:35:32;;;;;;;44.53;22.53;;;;;;;-0.93;66.67;100270.66;124626;1095;104570;-73
2020/12/09 07:38:00;;;;;;;47.17;22.40;;;;;;;-0.93;66.29;100264.58;124691;1095;104526;-73
2020/12/09 07:40:31;;;;;;;44.60;22.70;;;;;;;-0.93;66.42;100268.03;124597;1095;104606;-73
2020/12/09 07:43:02;;;;;;;44.00;22.70;;;;;;;-0.89;66.26;100256.47;124641;1095;104517;-73
2020/12/09 07:45:33;;;;;;;45.53;23.07;;;;;;;-0.87;66.57;100267.71;124782;1095;104702;-74
2020/12/09 07:48:03;;;;;;;42.97;21.13;;;;;;;-0.83;66.34;100274.52;124593;1095;104599;-73
2020/12/09 07:50:32;;;;;;;45.23;22.53;;;;;;;-0.80;65.76;100269.09;124606;1095;104513;-74
2020/12/09 07:53:02;;;;;;;41.67;19.67;;;;;;;-0.81;65.91;100261.31;124671;1095;104535;-74
2020/12/09 07:55:34;;;;;;;42.80;21.77;;;;;;;-0.81;66.27;100266.55;124679;1095;104615;-74
2020/12/09 07:58:07;;;;;;;44.40;21.20;;;;;;;-0.78;66.82;100262.94;124692;1089;104519;-72
2020/12/09 08:00:40;;;;;;;49.67;23.87;;;;;;;-0.73;66.41;100266.14;124717;1089;104635;-74
2020/12/09 08:03:16;;;;;;;58.93;29.07;;;;;;;-0.69;66.79;100268.54;124632;1095;104646;-74
2020/12/09 08:05:45;;;;;;;57.73;24.80;;;;;;;-0.66;65.70;100254.42;124676;1095;104555;-77
2020/12/09 08:08:15;;;;;;;56.27;26.43;;;;;;;-0.67;65.96;100255.37;124636;1095;104727;-73
2020/12/09 08:10:45;;;;;;;52.60;24.40;;;;;;;-0.67;65.98;100260.61;124526;1095;104925;-72
2020/12/09 08:13:15;;;;;;;50.97;23.70;;;;;;;-0.63;66.25;100265.59;124590;1095;104563;-72
2020/12/09 08:15:44;;;;;;;52.50;25.05;;;;;;;-0.58;65.78;100281.06;124677;1095;104571;-75
2020/12/09 08:18:23;;;;;;;50.37;24.73;;;;;;;-0.58;66.62;100274.98;124614;1090;104596;-71
2020/12/09 08:20:53;;;;;;;47.80;22.57;;;;;;;-0.62;65.82;100264.68;124783;1095;104538;-71
2020/12/09 08:23:23;;;;;;;47.40;24.57;;;;;;;-0.57;65.71;100271.44;124660;1095;104644;-73
2020/12/09 08:25:53;;;;;;;54.47;28.03;;;;;;;-0.55;66.56;100286.15;124653;1090;104615;-71
2020/12/09 08:28:24;;;;;;;63.37;30.33;;;;;;;-0.53;66.02;100286.91;124702;1095;104721;-72
2020/12/09 08:30:53;;;;;;;62.95;27.73;;;;;;;-0.53;65.66;100286.91;124723;1090;104930;-71
2020/12/09 08:33:26;;;;;;;62.13;26.73;;;;;;;-0.53;66.21;100279.05;124669;1096;104512;-72
2020/12/09 08:35:59;;;;;;;75.13;31.27;;;;;;;-0.50;66.45;100284.14;124755;1095;104621;-73
2020/12/09 08:38:37;;;;;;;60.80;27.83;;;;;;;-0.47;65.80;100277.87;124624;1095;104551;-71
2020/12/09 08:41:07;;;;;;;56.73;26.63;;;;;;;-0.43;66.34;100275.00;124635;1095;104526;-73
2020/12/09 08:43:37;;;;;;;59.57;27.93;;;;;;;-0.35;66.01;100278.99;124622;1095;104522;-72
2020/12/09 08:46:07;;;;;;;85.47;33.33;;;;;;;-0.30;66.46;100264.70;124660;1090;104603;-74
2020/12/09 08:48:37;;;;;;;82.83;35.70;;;;;;;-0.26;65.76;100260.14;124578;1090;104691;-72
2020/12/09 08:51:06;;;;;;;75.50;31.40;;;;;;;-0.25;65.71;100262.69;124689;1090;104976;-72
2020/12/09 08:53:35;;;;;;;70.65;29.90;;;;;;;-0.23;66.11;100271.31;124591;1095;104598;-72
2020/12/09 08:56:03;;;;;;;62.23;27.70;;;;;;;-0.17;65.84;100270.13;124625;1095;104682;-72
2020/12/09 08:58:31;;;;;;;62.33;28.40;;;;;;;-0.14;66.19;100263.86;124624;1090;104659;-72
2020/12/09 09:01:02;;;;;;;50.63;25.27;;;;;;;-0.09;65.66;100264.47;124616;1090;104517;-73
2020/12/09 09:03:36;;;;;;;57.13;26.90;;;;;;;-0.03;65.94;100282.48;124559;1095;104593;-71
2020/12/09 09:06:05;;;;;;;62.63;30.17;;;;;;;0.04;65.90;100288.22;124620;1095;104641;-72
2020/12/09 09:08:33;;;;;;;58.80;28.05;;;;;;;0.07;65.89;100277.56;124588;1096;104618;-72
2020/12/09 09:11:02;;;;;;;69.40;31.20;;;;;;;0.09;65.74;100281.79;124594;1096;104558;-73
2020/12/09 09:13:30;;;;;;;62.03;29.37;;;;;;;0.10;66.09;100293.16;124599;1095;104601;-72
2020/12/09 09:16:05;;;;;;;58.97;29.53;;;;;;;0.12;66.03;100291.28;124506;1095;104775;-72
2020/12/09 09:18:33;;;;;;;58.70;28.77;;;;;;;0.18;65.47;100281.28;124427;1095;104616;-73
2020/12/09 09:21:01;;;;;;;52.85;26.45;;;;;;;0.15;65.62;100281.44;124593;1095;104570;-72
2020/12/09 09:23:29;;;;;;;55.03;26.60;;;;;;;0.18;65.79;100280.44;124622;1095;104602;-73
2020/12/09 09:25:58;;;;;;;51.50;25.27;;;;;;;0.20;65.96;100289.08;124622;1095;104657;-74
2020/12/09 09:28:26;;;;;;;60.30;33.13;;;;;;;0.26;65.51;100286.09;124669;1090;104566;-73
2020/12/09 09:30:54;;;;;;;110.87;66.63;;;;;;;0.23;65.71;100285.42;124537;1095;104490;-72
2020/12/09 09:33:22;;;;;;;97.90;53.10;;;;;;;0.26;65.86;100283.47;124658;1090;104606;-71
2020/12/09 09:35:58;;;;;;;128.80;74.10;;;;;;;0.28;65.89;100275.52;124610;1095;104644;-70
2020/12/09 09:38:26;;;;;;;152.67;91.50;;;;;;;0.27;65.89;100276.44;124576;1095;104522;-72
2020/12/09 09:40:54;;;;;;;139.00;81.57;;;;;;;0.30;66.24;100276.28;124595;1095;105019;-71
2020/12/09 09:43:23;;;;;;;136.70;76.90;;;;;;;0.36;65.83;100274.13;124592;1095;104538;-72
2020/12/09 09:45:51;;;;;;;103.37;53.73;;;;;;;0.42;65.73;100272.11;124624;1095;104695;-73
2020/12/09 09:48:19;;;;;;;337.93;213.03;;;;;;;0.44;65.76;100262.36;124594;1095;104696;-71
2020/12/09 09:50:47;;;;;;;196.30;103.43;;;;;;;0.48;65.80;100271.75;124666;1095;104497;-73
2020/12/09 09:53:16;;;;;;;112.30;54.55;;;;;;;0.46;65.44;100268.36;124608;1095;104506;-72
2020/12/09 09:55:44;;;;;;;109.37;54.70;;;;;;;0.44;65.58;100276.32;124700;1095;104686;-73
2020/12/09 09:58:12;;;;;;;110.73;63.30;;;;;;;0.43;65.67;100279.06;124615;1095;104706;-71
2020/12/09 10:00:40;;;;;;;173.27;100.83;;;;;;;0.39;65.22;100268.72;124603;1095;104509;-72
2020/12/09 10:03:09;;;;;;;112.15;55.95;;;;;;;0.33;65.58;100274.33;124637;1095;104596;-74
2020/12/09 10:05:38;;;;;;;111.00;60.83;;;;;;;0.30;65.77;100278.91;124644;1095;104599;-72
2020/12/09 10:08:06;;;;;;;95.67;51.27;;;;;;;0.27;65.82;100274.68;124596;1096;104615;-74
2020/12/09 10:10:34;;;;;;;76.00;37.70;;;;;;;0.28;65.78;100281.61;124577;1095;104516;-71
2020/12/09 10:13:03;;;;;;;102.83;60.33;;;;;;;0.29;65.77;100274.57;124577;1095;104506;-75
2020/12/09 10:15:31;;;;;;;96.20;55.43;;;;;;;0.26;65.58;100274.77;124570;1095;104647;-72
2020/12/09 10:17:59;;;;;;;73.75;40.05;;;;;;;0.29;65.83;100271.95;124529;1095;104562;-73
2020/12/09 10:20:27;;;;;;;86.50;51.03;;;;;;;0.30;65.89;100274.48;124658;1095;104640;-73
2020/12/09 10:22:56;;;;;;;66.70;34.60;;;;;;;0.31;65.63;100263.08;124650;1095;104532;-72
2020/12/09 10:25:24;;;;;;;68.67;39.17;;;;;;;0.31;65.88;100265.70;124645;1096;104602;-74
2020/12/09 10:27:52;;;;;;;79.60;45.03;;;;;;;0.38;66.18;100266.18;124580;1096;104682;-73
2020/12/09 10:30:20;;;;;;;90.93;54.03;;;;;;;0.40;65.72;100269.56;124589;1095;105030;-72
2020/12/09 10:32:49;;;;;;;65.43;35.83;;;;;;;0.45;65.74;100266.69;124574;1095;104542;-72
2020/12/09 10:35:17;;;;;;;56.15;28.80;;;;;;;0.39;65.36;100263.47;124639;1095;104686;-72
2020/12/09 10:37:45;;;;;;;66.73;32.43;;;;;;;0.35;65.41;100269.84;124595;1095;104556;-72
2020/12/09 10:40:14;;;;;;;59.47;31.07;;;;;;;0.33;65.51;100258.58;124593;1095;104919;-73
2020/12/09 10:42:42;;;;;;;72.80;36.13;;;;;;;0.32;65.44;100267.37;124643;1095;104555;-71
2020/12/09 10:45:10;;;;;;;65.07;31.40;;;;;;;0.28;65.63;100262.40;124632;1096;104605;-72
2020/12/09 10:47:40;;;;;;;80.53;42.53;;;;;;;0.30;65.74;100271.03;124603;1096;104538;-73
2020/12/09 10:50:09;;;;;;;76.10;37.70;;;;;;;0.38;65.77;100263.55;124682;1095;104519;-73
2020/12/09 10:52:37;;;;;;;61.17;31.13;;;;;;;0.46;65.85;100256.08;124618;1095;104935;-72
2020/12/09 10:55:07;;;;;;;60.77;30.60;;;;;;;0.51;65.42;100250.58;124634;1095;105016;-73
2020/12/09 10:57:36;;;;;;;52.43;27.10;;;;;;;0.52;65.59;100252.25;124581;1095;104497;-72
2020/12/09 11:00:05;;;;;;;64.27;34.37;;;;;;;0.46;65.49;100244.73;124562;1095;104984;-73
2020/12/09 11:02:34;;;;;;;77.85;46.10;;;;;;;0.44;65.60;100249.23;124636;1095;104564;-74
2020/12/09 11:05:02;;;;;;;236.77;137.67;;;;;;;0.43;65.76;100245.77;124616;1095;104676;-72
2020/12/09 11:07:30;;;;;;;128.50;60.47;;;;;;;0.46;65.15;100249.98;124635;1095;104734;-72
2020/12/09 11:09:59;;;;;;;115.10;51.25;;;;;;;0.50;65.51;100248.88;124594;1095;105057;-72
2020/12/09 11:12:27;;;;;;;177.77;99.10;;;;;;;0.52;65.49;100255.75;124622;1095;104516;-74